sensor_id;sensor_type;location;lat;lon;timestamp;pressure;altitude;pressure_sealevel;temperature;humidity
71903;BME280;59778;50.310;18.780;2022-12-18T00:12:15;100363.63;;;-4.03;89.86
71903;BME280;59778;50.310;18.780;2022-12-18T00:27:36;100377.88;;;-3.86;88.89
71903;BME280;59778;50.310;18.780;2022-12-18T00:42:57;100393.91;;;-4.09;89.55
71903;BME280;59778;50.310;18.780;2022-12-18T00:58:19;100407.34;;;-4.13;88.99
71903;BME280;59778;50.310;18.780;2022-12-18T01:13:40;100422.63;;;-3.98;89.70
71903;BME280;59778;50.310;18.780;2022-12-18T01:29:01;100429.69;;;-3.77;88.28
71903;BME280;59778;50.310;18.780;2022-12-18T02:00:22;100470.19;;;-3.94;89.57
71903;BME280;59778;50.310;18.780;2022-12-18T02:31:23;100497.63;;;-4.15;90.84
71903;BME280;59778;50.310;18.780;2022-12-18T02:46:54;100504.38;;;-4.53;92.32
71903;BME280;59778;50.310;18.780;2022-12-18T03:17:44;100542.53;;;-4.57;92.68
71903;BME280;59778;50.310;18.780;2022-12-18T03:33:17;100557.28;;;-4.50;92.60
71903;BME280;59778;50.310;18.780;2022-12-18T03:48:48;100570.03;;;-4.59;92.73
71903;BME280;59778;50.310;18.780;2022-12-18T04:04:13;100574.78;;;-4.46;92.93
71903;BME280;59778;50.310;18.780;2022-12-18T04:19:35;100597.13;;;-4.28;92.60
71903;BME280;59778;50.310;18.780;2022-12-18T04:34:57;100610.72;;;-4.14;91.99
71903;BME280;59778;50.310;18.780;2022-12-18T04:50:18;100624.63;;;-4.07;91.00
71903;BME280;59778;50.310;18.780;2022-12-18T05:05:39;100653.63;;;-4.03;91.10
71903;BME280;59778;50.310;18.780;2022-12-18T05:21:01;100665.94;;;-4.25;92.24
71903;BME280;59778;50.310;18.780;2022-12-18T05:36:22;100673.16;;;-4.29;91.70
71903;BME280;59778;50.310;18.780;2022-12-18T05:51:43;100687.88;;;-4.20;91.40
71903;BME280;59778;50.310;18.780;2022-12-18T06:07:04;100699.06;;;-4.61;93.10
71903;BME280;59778;50.310;18.780;2022-12-18T06:22:26;100708.03;;;-4.65;92.39
71903;BME280;59778;50.310;18.780;2022-12-18T06:37:47;100731.53;;;-4.30;91.54
71903;BME280;59778;50.310;18.780;2022-12-18T06:53:08;100758.75;;;-4.50;92.50
71903;BME280;59778;50.310;18.780;2022-12-18T07:08:30;100771.19;;;-4.52;91.80
71903;BME280;59778;50.310;18.780;2022-12-18T07:23:52;100790.13;;;-4.11;90.82
71903;BME280;59778;50.310;18.780;2022-12-18T07:39:13;100797.22;;;-4.12;89.92
71903;BME280;59778;50.310;18.780;2022-12-18T07:54:35;100797.63;;;-3.74;87.81
71903;BME280;59778;50.310;18.780;2022-12-18T08:09:56;100810.41;;;-3.14;86.40
71903;BME280;59778;50.310;18.780;2022-12-18T08:25:17;100826.25;;;-2.90;84.67
71903;BME280;59778;50.310;18.780;2022-12-18T08:40:38;100835.84;;;-2.64;81.65
71903;BME280;59778;50.310;18.780;2022-12-18T08:56:00;100859.59;;;-3.27;83.42
71903;BME280;59778;50.310;18.780;2022-12-18T09:11:24;100870.00;;;-2.10;79.27
71903;BME280;59778;50.310;18.780;2022-12-18T09:26:46;100871.03;;;-2.14;76.73
71903;BME280;59778;50.310;18.780;2022-12-18T09:42:22;100870.84;;;-1.89;74.79
71903;BME280;59778;50.310;18.780;2022-12-18T09:57:49;100876.38;;;-2.14;75.46
71903;BME280;59778;50.310;18.780;2022-12-18T10:29:00;100839.09;;;-0.77;70.35
71903;BME280;59778;50.310;18.780;2022-12-18T10:44:23;100828.00;;;-0.68;68.99
71903;BME280;59778;50.310;18.780;2022-12-18T10:59:57;100823.31;;;-1.19;69.63
71903;BME280;59778;50.310;18.780;2022-12-18T11:15:27;100807.59;;;-1.44;72.74
71903;BME280;59778;50.310;18.780;2022-12-18T11:46:47;100835.63;;;-0.24;68.82
71903;BME280;59778;50.310;18.780;2022-12-18T12:18:14;100836.97;;;-0.87;69.44
71903;BME280;59778;50.310;18.780;2022-12-18T12:33:53;100858.09;;;-0.47;69.84
71903;BME280;59778;50.310;18.780;2022-12-18T12:49:20;100858.84;;;-0.62;68.99
71903;BME280;59778;50.310;18.780;2022-12-18T13:04:57;100862.25;;;-0.96;70.35
71903;BME280;59778;50.310;18.780;2022-12-18T13:20:32;100872.81;;;-0.95;71.85
71903;BME280;59778;50.310;18.780;2022-12-18T13:36:11;100877.59;;;-0.82;70.01
71903;BME280;59778;50.310;18.780;2022-12-18T13:51:34;100875.88;;;-1.22;71.66
71903;BME280;59778;50.310;18.780;2022-12-18T14:22:26;100875.69;;;-2.19;69.94
71903;BME280;59778;50.310;18.780;2022-12-18T14:37:50;100874.13;;;-2.68;71.14
71903;BME280;59778;50.310;18.780;2022-12-18T14:53:20;100896.47;;;-3.18;73.99
71903;BME280;59778;50.310;18.780;2022-12-18T15:08:43;100919.44;;;-3.92;75.40
71903;BME280;59778;50.310;18.780;2022-12-18T15:24:16;100924.44;;;-4.94;80.40
71903;BME280;59778;50.310;18.780;2022-12-18T15:39:38;100947.31;;;-5.53;80.97
71903;BME280;59778;50.310;18.780;2022-12-18T15:55:00;100959.06;;;-5.95;78.29
71903;BME280;59778;50.310;18.780;2022-12-18T16:10:40;100966.00;;;-6.65;82.29
71903;BME280;59778;50.310;18.780;2022-12-18T16:26:01;100972.22;;;-7.09;81.23
71903;BME280;59778;50.310;18.780;2022-12-18T16:41:22;100973.53;;;-7.77;82.12
71903;BME280;59778;50.310;18.780;2022-12-18T16:56:52;100946.81;;;-8.08;81.65
71903;BME280;59778;50.310;18.780;2022-12-18T17:12:14;100915.81;;;-8.41;80.89
71903;BME280;59778;50.310;18.780;2022-12-18T17:27:35;100910.81;;;-8.61;82.77
71903;BME280;59778;50.310;18.780;2022-12-18T17:42:56;100937.16;;;-8.61;83.56
71903;BME280;59778;50.310;18.780;2022-12-18T17:58:18;100930.88;;;-8.51;91.19
71903;BME280;59778;50.310;18.780;2022-12-18T18:13:39;100937.38;;;-8.21;91.85
71903;BME280;59778;50.310;18.780;2022-12-18T18:29:21;100940.63;;;-8.05;92.88
71903;BME280;59778;50.310;18.780;2022-12-18T18:44:43;100940.63;;;-8.05;91.80
71903;BME280;59778;50.310;18.780;2022-12-18T19:00:04;100983.38;;;-7.87;92.77
71903;BME280;59778;50.310;18.780;2022-12-18T19:15:26;100981.69;;;-7.92;92.53
71903;BME280;59778;50.310;18.780;2022-12-18T19:30:47;100995.31;;;-8.18;92.57
71903;BME280;59778;50.310;18.780;2022-12-18T19:46:12;100986.56;;;-7.68;88.18
71903;BME280;59778;50.310;18.780;2022-12-18T20:01:36;100979.44;;;-8.15;91.56
71903;BME280;59778;50.310;18.780;2022-12-18T20:16:57;100982.03;;;-8.14;92.29
71903;BME280;59778;50.310;18.780;2022-12-18T20:32:19;100976.88;;;-8.18;91.57
71903;BME280;59778;50.310;18.780;2022-12-18T20:47:41;100949.88;;;-8.32;92.85
71903;BME280;59778;50.310;18.780;2022-12-18T21:03:02;100947.31;;;-8.35;92.84
71903;BME280;59778;50.310;18.780;2022-12-18T21:18:24;100936.00;;;-8.42;91.73
71903;BME280;59778;50.310;18.780;2022-12-18T21:33:45;100940.47;;;-8.47;92.67
71903;BME280;59778;50.310;18.780;2022-12-18T21:49:08;100943.09;;;-8.48;91.78
71903;BME280;59778;50.310;18.780;2022-12-18T22:04:29;100939.91;;;-8.69;92.23
71903;BME280;59778;50.310;18.780;2022-12-18T22:19:50;100946.31;;;-8.86;92.20
71903;BME280;59778;50.310;18.780;2022-12-18T22:35:12;100944.50;;;-8.84;93.09
71903;BME280;59778;50.310;18.780;2022-12-18T22:50:33;100931.56;;;-8.99;93.52
71903;BME280;59778;50.310;18.780;2022-12-18T23:06:01;100939.34;;;-8.90;93.15
71903;BME280;59778;50.310;18.780;2022-12-18T23:21:23;100932.22;;;-8.82;92.30
71903;BME280;59778;50.310;18.780;2022-12-18T23:36:44;100928.09;;;-9.01;93.42
71903;BME280;59778;50.310;18.780;2022-12-18T23:52:06;100907.16;;;-9.12;93.11
